Time;durP1;ratioP1;P1;durP2;ratioP2;P2;SDS_P1;SDS_P2;PMS_P1;PMS_P2;Temp;Humidity;BMP_temperature;BMP_pressure;BME280_temperature;BME280_humidity;BME280_pressure;Samples;Min_cycle;Max_cycle;Signal;HPM_P1;HPM_P2
2021/07/25 00:02:07;;;;;;;19.80;11.00;;;;;;;15.75;100.00;93429.56;5047145;28;20076;-53
2021/07/25 00:04:33;;;;;;;15.20;11.07;;;;;;;15.77;100.00;93435.41;5060397;28;20033;-54
2021/07/25 00:07:06;;;;;;;15.68;10.45;;;;;;;15.78;100.00;93445.09;5055250;28;21685;-49
2021/07/25 00:09:31;;;;;;;;;;;;;;;15.76;100.00;93455.44;5055129;28;20037;-56
2021/07/25 00:11:56;;;;;;;15.70;10.90;;;;;;;15.78;100.00;93462.06;5052591;28;20023;-55
2021/07/25 00:14:22;;;;;;;14.82;11.40;;;;;;;15.78;100.00;93461.28;5066093;28;20266;-53
2021/07/25 00:16:50;;;;;;;18.58;10.73;;;;;;;15.77;100.00;93465.09;5046857;28;20064;-55
2021/07/25 00:19:18;;;;;;;15.85;12.15;;;;;;;15.77;100.00;93481.31;5039540;28;20050;-51
2021/07/25 00:21:49;;;;;;;14.60;11.05;;;;;;;15.73;100.00;93472.28;5059253;28;20112;-52
2021/07/25 00:24:22;;;;;;;16.83;11.80;;;;;;;15.71;100.00;93458.34;5057340;28;20557;-54
2021/07/25 00:26:48;;;;;;;20.17;11.48;;;;;;;15.68;100.00;93448.22;5056606;28;20033;-56
2021/07/25 00:29:15;;;;;;;15.70;11.52;;;;;;;15.66;100.00;93437.75;5058128;28;20035;-53
2021/07/25 00:31:48;;;;;;;14.43;11.10;;;;;;;15.65;100.00;93431.59;5058336;28;20025;-50
2021/07/25 00:34:16;;;;;;;14.70;9.88;;;;;;;15.65;100.00;93447.78;5050183;28;20033;-50
2021/07/25 00:36:44;;;;;;;14.77;10.65;;;;;;;15.61;100.00;93454.16;5048361;28;20403;-49
2021/07/25 00:39:10;;;;;;;12.13;9.27;;;;;;;15.57;100.00;93458.63;5050919;28;20620;-48
2021/07/25 00:41:36;;;;;;;16.95;10.82;;;;;;;15.54;100.00;93462.00;5054047;28;20358;-50
2021/07/25 00:44:11;;;;;;;15.75;10.80;;;;;;;15.49;100.00;93473.78;5059506;28;20049;-54
2021/07/25 00:46:42;;;;;;;14.02;9.75;;;;;;;15.46;100.00;93485.25;5058639;28;20020;-48
2021/07/25 00:49:11;;;;;;;13.10;9.48;;;;;;;15.42;100.00;93481.66;5062509;28;20058;-53
2021/07/25 00:51:39;;;;;;;26.52;11.98;;;;;;;15.42;100.00;93487.06;5063804;28;20032;-49
2021/07/25 00:54:04;;;;;;;12.90;10.13;;;;;;;15.43;100.00;93488.63;5052243;28;20029;-55
2021/07/25 00:56:38;;;;;;;15.68;10.80;;;;;;;15.44;100.00;93495.59;5065646;28;20044;-53
2021/07/25 00:59:04;;;;;;;18.48;10.07;;;;;;;15.44;100.00;93503.69;5055231;28;20077;-51
2021/07/25 01:01:38;;;;;;;16.13;10.23;;;;;;;15.45;100.00;93509.88;5073167;28;20035;-54
2021/07/25 01:04:25;;;;;;;20.70;11.65;;;;;;;15.49;100.00;93498.06;5065439;28;20034;-57
2021/07/25 01:07:11;;;;;;;16.52;11.48;;;;;;;15.55;100.00;93472.47;5069404;28;20043;-54
2021/07/25 01:09:58;;;;;;;17.15;10.18;;;;;;;15.66;100.00;93462.06;5072847;28;20375;-55
2021/07/25 01:13:03;;;;;;;16.50;10.25;;;;;;;15.65;100.00;93476.69;5068721;28;20048;-48
2021/07/25 01:15:33;;;;;;;14.85;11.27;;;;;;;15.64;100.00;93485.91;5082838;28;20039;-50
2021/07/25 01:18:05;;;;;;;15.07;10.75;;;;;;;15.62;100.00;93485.41;5061034;28;20020;-48
2021/07/25 01:20:33;;;;;;;13.38;10.07;;;;;;;15.59;100.00;93486.84;5077977;28;20115;-52
2021/07/25 01:22:59;;;;;;;14.18;10.73;;;;;;;15.59;100.00;93491.47;5045807;28;20024;-49
2021/07/25 01:25:29;;;;;;;15.07;11.18;;;;;;;15.57;100.00;93491.81;5065532;28;20085;-49
2021/07/25 01:28:38;;;;;;;16.60;11.07;;;;;;;15.58;100.00;93495.28;5072060;28;20032;-52
2021/07/25 01:31:21;;;;;;;16.48;10.63;;;;;;;15.57;100.00;93491.81;5060065;28;20085;-51
2021/07/25 01:33:59;;;;;;;18.13;10.90;;;;;;;15.58;100.00;93492.59;5068676;28;20371;-52
2021/07/25 01:36:25;;;;;;;13.32;10.18;;;;;;;15.58;100.00;93484.50;5059780;28;20074;-55
2021/07/25 01:39:00;;;;;;;17.33;9.85;;;;;;;15.56;100.00;93495.63;5057987;28;20422;-55
2021/07/25 01:41:44;;;;;;;15.70;10.70;;;;;;;15.54;100.00;93508.69;5067835;28;20028;-55
2021/07/25 01:44:15;;;;;;;17.77;10.48;;;;;;;15.56;100.00;93511.81;5056944;28;20075;-57
2021/07/25 01:46:43;;;;;;;13.55;9.82;;;;;;;15.57;100.00;93512.59;5056537;28;20055;-54
2021/07/25 01:49:09;;;;;;;15.88;10.57;;;;;;;15.57;100.00;93513.41;5074025;28;20043;-55
2021/07/25 01:51:36;;;;;;;14.90;10.75;;;;;;;15.57;100.00;93518.00;5075817;28;20021;-50
2021/07/25 01:54:02;;;;;;;11.80;9.88;;;;;;;15.56;100.00;93522.63;5065246;28;20029;-49
2021/07/25 01:56:30;;;;;;;13.05;9.95;;;;;;;15.54;100.00;93522.16;5070023;28;20093;-50
2021/07/25 01:58:56;;;;;;;11.98;8.63;;;;;;;15.53;100.00;93530.59;5055686;28;20399;-50
2021/07/25 02:01:22;;;;;;;19.75;10.15;;;;;;;15.52;100.00;93527.13;5078125;28;20051;-48
2021/07/25 02:03:50;;;;;;;14.25;9.95;;;;;;;15.50;100.00;93523.16;5057605;28;20053;-51
2021/07/25 02:06:16;;;;;;;11.55;9.25;;;;;;;15.49;100.00;93513.47;5053724;28;20031;-55
2021/07/25 02:08:41;;;;;;;13.10;8.77;;;;;;;15.49;100.00;93513.47;5078565;28;20078;-53
2021/07/25 02:11:13;;;;;;;12.05;8.30;;;;;;;15.48;100.00;93506.50;5053302;28;20488;-54
2021/07/25 02:13:38;;;;;;;12.20;9.20;;;;;;;15.46;100.00;93517.63;5061225;28;20102;-59
2021/07/25 02:16:06;;;;;;;11.82;8.65;;;;;;;15.47;100.00;93494.94;5087465;28;20028;-55
2021/07/25 02:18:37;;;;;;;11.77;8.93;;;;;;;15.55;100.00;93458.97;5061889;28;20029;-54
2021/07/25 02:21:07;;;;;;;12.23;9.18;;;;;;;15.60;100.00;93437.19;5071533;28;20111;-50
2021/07/25 02:23:36;;;;;;;12.60;8.52;;;;;;;15.61;100.00;93440.66;5072934;28;20085;-57
2021/07/25 02:26:07;;;;;;;12.82;9.68;;;;;;;15.60;100.00;93442.59;5072076;28;20029;-51
2021/07/25 02:28:32;;;;;;;18.60;8.52;;;;;;;15.61;100.00;93444.16;5072286;28;20023;-53
2021/07/25 02:30:58;;;;;;;14.48;8.98;;;;;;;15.60;100.00;93445.28;5052243;28;20103;-56
2021/07/25 02:33:36;;;;;;;12.18;8.35;;;;;;;15.60;100.00;93458.00;5052583;28;20017;-55
2021/07/25 02:36:02;;;;;;;12.48;8.95;;;;;;;15.58;100.00;93454.81;5047528;28;20024;-52
2021/07/25 02:38:27;;;;;;;12.45;9.80;;;;;;;15.56;100.00;93447.06;5073100;28;20123;-56
2021/07/25 02:40:53;;;;;;;11.98;8.50;;;;;;;15.57;100.00;93448.63;5062429;28;20403;-56
2021/07/25 02:43:21;;;;;;;15.20;8.88;;;;;;;15.57;100.00;93435.13;5088246;28;20107;-51
2021/07/25 02:45:46;;;;;;;14.93;9.25;;;;;;;15.63;100.00;93430.34;5071621;28;20033;-57
2021/07/25 02:48:12;;;;;;;11.43;8.70;;;;;;;15.65;100.00;93426.19;5041987;28;20025;-49
2021/07/25 02:50:37;;;;;;;11.20;8.73;;;;;;;15.65;100.00;93411.91;5063484;28;20104;-50
2021/07/25 02:53:03;;;;;;;11.65;8.77;;;;;;;15.64;100.00;93430.00;5050122;28;20372;-49
2021/07/25 02:55:28;;;;;;;13.57;8.60;;;;;;;15.62;100.00;93434.94;5075556;28;20032;-51
2021/07/25 02:57:53;;;;;;;13.07;8.15;;;;;;;15.60;100.00;93437.19;5047216;28;20033;-54
2021/07/25 03:00:25;;;;;;;15.93;8.70;;;;;;;15.57;100.00;93432.44;5075535;28;20104;-54
2021/07/25 03:02:56;;;;;;;11.80;8.50;;;;;;;15.57;100.00;93439.75;5057205;28;20484;-56
2021/07/25 03:05:24;;;;;;;13.52;9.10;;;;;;;15.54;100.00;93440.44;5070547;28;20227;-55
2021/07/25 03:07:50;;;;;;;11.50;8.77;;;;;;;15.52;100.00;93434.56;5080082;28;20035;-57
2021/07/25 03:10:17;;;;;;;11.77;8.18;;;;;;;15.52;100.00;93434.56;5071250;28;20033;-53
2021/07/25 03:12:54;;;;;;;15.07;7.47;;;;;;;15.51;100.00;93431.06;5069783;28;20039;-55
2021/07/25 03:15:19;;;;;;;11.13;7.90;;;;;;;15.49;100.00;93425.22;5059833;28;20123;-56
2021/07/25 03:17:48;;;;;;;12.70;8.60;;;;;;;15.48;100.00;93423.66;5077532;28;20103;-54
2021/07/25 03:20:19;;;;;;;16.02;8.98;;;;;;;15.51;100.00;93414.09;5060296;28;20356;-57
2021/07/25 03:22:45;;;;;;;10.32;7.90;;;;;;;15.52;100.00;93397.59;5066305;28;20027;-55
2021/07/25 03:25:11;;;;;;;10.55;7.75;;;;;;;15.54;100.00;93397.25;5074201;28;20032;-59
2021/07/25 03:27:37;;;;;;;10.32;8.27;;;;;;;15.53;100.00;93401.88;5059026;28;20510;-56
2021/07/25 03:30:08;;;;;;;11.10;8.63;;;;;;;15.52;100.00;93411.09;5075106;28;20023;-57
2021/07/25 03:32:43;;;;;;;12.18;7.35;;;;;;;15.50;100.00;93410.59;5075296;28;20387;-56
2021/07/25 03:35:14;;;;;;;10.85;8.10;;;;;;;15.47;100.00;93407.81;5067077;28;20063;-57
2021/07/25 03:37:45;;;;;;;12.52;8.50;;;;;;;15.43;100.00;93396.13;5057181;28;20453;-57
2021/07/25 03:40:12;;;;;;;10.88;7.68;;;;;;;15.37;100.00;93412.50;5081944;28;20554;-57
2021/07/25 03:42:42;;;;;;;11.95;7.72;;;;;;;15.29;100.00;93408.00;5074865;28;20090;-55
2021/07/25 03:45:08;;;;;;;12.63;8.38;;;;;;;15.24;100.00;93407.44;5078668;28;20499;-54
2021/07/25 03:47:38;;;;;;;11.85;7.88;;;;;;;15.18;100.00;93411.47;5064176;28;20067;-58
2021/07/25 03:50:07;;;;;;;11.00;7.60;;;;;;;15.13;100.00;93414.38;5055035;28;20021;-51
2021/07/25 03:52:37;;;;;;;10.88;7.28;;;;;;;15.14;100.00;93405.16;5089993;28;20111;-56
2021/07/25 03:55:04;;;;;;;9.68;7.47;;;;;;;15.19;100.00;93397.63;5061018;28;20111;-52
2021/07/25 03:57:35;;;;;;;12.68;8.20;;;;;;;15.20;100.00;93393.06;5097311;22;20064;-53
2021/07/25 04:00:02;;;;;;;12.20;7.32;;;;;;;15.21;100.00;93392.72;5089923;28;20028;-55
2021/07/25 04:02:30;;;;;;;9.45;6.97;;;;;;;15.20;100.00;93404.63;5088329;28;20032;-54
2021/07/25 04:04:56;;;;;;;11.18;7.18;;;;;;;15.20;100.00;93412.72;5090209;28;20028;-61
2021/07/25 04:07:21;;;;;;;9.90;7.80;;;;;;;15.27;100.00;93420.25;5078669;28;20116;-51
2021/07/25 04:09:49;;;;;;;10.65;7.97;;;;;;;15.34;100.00;93433.97;5060739;28;20032;-53
2021/07/25 04:12:15;;;;;;;11.27;8.30;;;;;;;15.41;100.00;93430.72;5057324;28;20428;-51
2021/07/25 04:14:43;;;;;;;11.63;9.20;;;;;;;15.45;100.00;93437.03;5074456;28;20021;-56
2021/07/25 04:17:14;;;;;;;15.77;10.93;;;;;;;15.51;100.00;93430.28;5076435;28;20106;-52
2021/07/25 04:19:39;;;;;;;15.25;10.45;;;;;;;15.57;100.00;93443.22;5077429;28;20509;-57
2021/07/25 04:22:11;;;;;;;13.73;10.50;;;;;;;15.61;100.00;93437.97;5085042;28;20032;-50
2021/07/25 04:24:37;;;;;;;16.83;11.48;;;;;;;15.63;100.00;93427.66;5085024;28;20020;-50
2021/07/25 04:27:03;;;;;;;14.50;11.52;;;;;;;15.65;100.00;93420.00;5083772;28;20028;-58
2021/07/25 04:29:31;;;;;;;15.05;11.13;;;;;;;15.66;100.00;93410.78;5082804;28;20474;-53
2021/07/25 04:32:00;;;;;;;16.58;11.75;;;;;;;15.70;100.00;93405.47;5075864;28;20035;-52
2021/07/25 04:34:29;;;;;;;18.02;10.82;;;;;;;15.69;100.00;93414.72;5056866;28;20088;-53
2021/07/25 04:36:56;;;;;;;15.43;11.23;;;;;;;15.69;100.00;93414.72;5076193;28;20070;-56
2021/07/25 04:39:25;;;;;;;16.27;11.20;;;;;;;15.71;100.00;93415.16;5078540;28;20487;-55
2021/07/25 04:41:55;;;;;;;14.95;10.90;;;;;;;15.72;100.00;93405.94;5065726;28;20028;-57
2021/07/25 04:44:32;;;;;;;17.83;12.32;;;;;;;15.74;100.00;93391.00;5056009;28;20024;-52
2021/07/25 04:47:06;;;;;;;17.30;11.73;;;;;;;15.74;100.00;93379.38;5065627;28;20438;-53
2021/07/25 04:49:59;;;;;;;15.27;11.48;;;;;;;15.73;100.00;93377.81;5055551;28;20563;-54
2021/07/25 04:52:27;;;;;;;16.33;12.35;;;;;;;15.74;100.00;93368.59;5077526;28;20039;-50
2021/07/25 04:55:01;;;;;;;17.13;12.48;;;;;;;15.74;100.00;93368.59;5057612;28;20025;-54
2021/07/25 04:57:32;;;;;;;23.23;12.38;;;;;;;15.75;100.00;93367.47;5078637;28;20106;-50
2021/07/25 05:00:14;;;;;;;21.70;12.30;;;;;;;15.75;100.00;93354.78;5075262;28;20054;-52
2021/07/25 05:02:42;;;;;;;14.98;11.27;;;;;;;15.77;100.00;93362.53;5054290;28;20020;-55
2021/07/25 05:05:09;;;;;;;16.60;12.07;;;;;;;15.78;100.00;93364.88;5070798;28;20032;-56
2021/07/25 05:07:44;;;;;;;16.88;10.68;;;;;;;15.78;100.00;93364.09;5069846;28;20048;-53
2021/07/25 05:10:12;;;;;;;16.15;11.60;;;;;;;15.81;100.00;93363.41;5062237;28;20043;-54
2021/07/25 05:12:49;;;;;;;18.38;11.88;;;;;;;15.82;100.00;93365.75;5077348;28;20107;-55
2021/07/25 05:15:18;;;;;;;16.98;11.73;;;;;;;15.84;100.00;93358.09;5071713;28;20399;-55
2021/07/25 05:18:04;;;;;;;16.02;11.75;;;;;;;15.89;100.00;93352.50;5048983;28;20029;-55
2021/07/25 05:20:55;;;;;;;15.27;11.32;;;;;;;15.92;100.00;93351.81;5070006;28;20118;-53
2021/07/25 05:23:36;;;;;;;19.92;11.20;;;;;;;15.96;100.00;93360.03;4995371;28;20043;-57
2021/07/25 05:26:03;;;;;;;15.02;10.88;;;;;;;16.01;100.00;93353.59;5072505;28;20112;-53
2021/07/25 05:28:36;;;;;;;14.85;11.60;;;;;;;16.08;100.00;93348.41;5087149;28;20479;-55
2021/07/25 05:31:01;;;;;;;;;;;;;;;16.03;100.00;93352.13;5064122;28;20050;-56
2021/07/25 05:33:29;;;;;;;16.08;9.88;;;;;;;16.04;100.00;93353.69;5077121;28;19916;-54
2021/07/25 05:35:55;;;;;;;13.30;9.43;;;;;;;16.09;100.00;93352.69;5042297;28;20391;-55
2021/07/25 05:38:20;;;;;;;13.90;9.77;;;;;;;16.11;100.00;93355.84;5053456;28;20028;-52
2021/07/25 05:40:48;;;;;;;12.90;9.55;;;;;;;16.11;100.00;93359.31;5065500;28;20410;-59
2021/07/25 05:43:17;;;;;;;14.98;10.77;;;;;;;16.10;100.00;93355.03;5078068;28;20036;-55
2021/07/25 05:46:03;;;;;;;13.05;9.50;;;;;;;16.15;100.00;93346.69;5075338;28;20041;-55
2021/07/25 05:48:28;;;;;;;14.15;10.13;;;;;;;16.18;100.00;93339.84;5077038;28;20032;-53
2021/07/25 05:50:57;;;;;;;12.95;9.98;;;;;;;16.18;100.00;93329.03;5073054;28;20032;-53
2021/07/25 05:53:25;;;;;;;13.43;10.27;;;;;;;16.23;100.00;93329.56;5058650;28;20359;-52
2021/07/25 05:56:01;;;;;;;12.57;9.70;;;;;;;16.27;100.00;93323.47;5066128;28;20035;-53
2021/07/25 05:58:28;;;;;;;11.93;9.38;;;;;;;16.29;100.00;93316.63;5076813;28;20055;-55
2021/07/25 06:00:57;;;;;;;15.25;9.85;;;;;;;16.34;100.00;93304.78;5078132;28;20512;-53
2021/07/25 06:03:22;;;;;;;13.15;10.27;;;;;;;16.32;100.00;93320.53;5043385;28;20037;-53
2021/07/25 06:05:47;;;;;;;14.38;10.70;;;;;;;16.36;100.00;93316.00;5071552;28;20024;-62
2021/07/25 06:08:13;;;;;;;12.45;10.02;;;;;;;16.47;100.00;93306.28;5062977;28;20497;-54
2021/07/25 06:10:43;;;;;;;13.18;9.95;;;;;;;16.58;100.00;93288.44;5057959;28;20074;-57
2021/07/25 06:13:09;;;;;;;12.45;9.93;;;;;;;16.64;100.00;93286.28;5076365;28;20394;-54
2021/07/25 06:15:38;;;;;;;12.68;10.02;;;;;;;16.64;100.00;93286.28;5068340;28;20025;-52
2021/07/25 06:18:06;;;;;;;15.02;10.43;;;;;;;16.76;100.00;93272.72;5038718;28;20030;-60
2021/07/25 06:20:32;;;;;;;11.27;9.38;;;;;;;16.82;100.00;93255.09;5067946;28;20024;-51
2021/07/25 06:23:18;;;;;;;13.88;10.60;;;;;;;16.80;100.00;93250.03;5066242;28;20083;-56
2021/07/25 06:25:43;;;;;;;12.93;9.38;;;;;;;16.65;100.00;93256.19;5060597;28;20115;-53
2021/07/25 06:28:09;;;;;;;12.43;9.88;;;;;;;16.68;100.00;93260.94;5058621;28;20601;-57
2021/07/25 06:30:35;;;;;;;15.18;10.00;;;;;;;16.74;100.00;93261.47;5080025;28;20502;-55
2021/07/25 06:33:08;;;;;;;12.20;9.52;;;;;;;16.81;100.00;93253.53;5057638;28;20510;-59
2021/07/25 06:35:38;;;;;;;12.10;9.80;;;;;;;16.97;100.00;93246.22;5052360;28;20025;-55
2021/07/25 06:38:10;;;;;;;12.65;10.25;;;;;;;17.00;100.00;93242.81;5061671;28;20106;-65
2021/07/25 06:40:40;;;;;;;12.20;8.93;;;;;;;17.18;100.00;93231.63;5068400;28;20020;-62
2021/07/25 06:43:08;;;;;;;11.02;8.95;;;;;;;17.36;100.00;93224.69;5060504;28;20505;-54
2021/07/25 06:45:36;;;;;;;14.32;9.30;;;;;;;17.46;100.00;93213.31;5070720;28;20028;-54
2021/07/25 06:48:29;;;;;;;11.40;8.85;;;;;;;17.58;100.00;93205.13;5068018;28;20021;-57
2021/07/25 06:51:00;;;;;;;12.43;10.00;;;;;;;17.73;100.00;93189.19;5054452;28;20081;-58
2021/07/25 06:53:32;;;;;;;11.43;8.50;;;;;;;17.76;100.00;93189.25;5054373;28;20364;-58
2021/07/25 06:56:08;;;;;;;10.23;8.05;;;;;;;17.93;100.00;93182.63;5031184;28;21070;-58
2021/07/25 06:58:34;;;;;;;10.40;8.55;;;;;;;18.05;100.00;93162.75;5056582;28;20047;-54
2021/07/25 07:01:02;;;;;;;11.23;8.63;;;;;;;18.16;100.00;93152.88;5069005;28;20479;-56
2021/07/25 07:03:28;;;;;;;11.07;7.88;;;;;;;18.34;100.00;93137.72;5054458;28;20071;-55
2021/07/25 07:05:56;;;;;;;12.27;8.60;;;;;;;18.47;100.00;93122.06;5075093;28;21774;-58
2021/07/25 07:08:22;;;;;;;13.60;8.27;;;;;;;18.54;100.00;93127.59;5072183;28;20107;-56
2021/07/25 07:10:48;;;;;;;13.55;8.43;;;;;;;18.63;100.00;93105.66;5076982;28;20460;-61
2021/07/25 07:13:17;;;;;;;12.60;8.93;;;;;;;18.60;100.00;93107.19;5067023;28;20021;-58
2021/07/25 07:15:44;;;;;;;11.00;8.40;;;;;;;18.53;100.00;93094.28;5057277;28;20523;-57
2021/07/25 07:18:13;;;;;;;9.98;7.35;;;;;;;18.56;100.00;93092.81;5051307;28;20118;-58
2021/07/25 07:20:51;;;;;;;11.10;7.72;;;;;;;18.61;100.00;93070.78;5059097;28;20020;-58
2021/07/25 07:23:20;;;;;;;11.77;7.97;;;;;;;18.59;100.00;93061.47;5083262;28;20384;-56
2021/07/25 07:25:50;;;;;;;10.25;7.40;;;;;;;18.54;100.00;93055.19;5068090;28;20384;-58
2021/07/25 07:28:24;;;;;;;12.55;8.27;;;;;;;18.50;100.00;93051.66;5075652;28;20021;-54
2021/07/25 07:30:51;;;;;;;10.90;7.88;;;;;;;18.49;100.00;93046.59;5041645;28;20028;-58
2021/07/25 07:33:18;;;;;;;11.00;7.28;;;;;;;18.44;100.00;93044.16;5072949;28;20023;-60
2021/07/25 07:35:59;;;;;;;10.57;7.20;;;;;;;18.37;100.00;93039.44;5040138;28;20020;-60
2021/07/25 07:38:43;;;;;;;11.27;7.25;;;;;;;18.28;100.00;93032.69;5061957;28;20586;-59
2021/07/25 07:41:08;;;;;;;13.85;7.53;;;;;;;18.22;100.00;93048.47;5073041;28;20030;-56
2021/07/25 07:43:38;;;;;;;11.18;7.63;;;;;;;18.20;100.00;93042.63;5050716;28;20075;-58
2021/07/25 07:46:06;;;;;;;9.23;7.15;;;;;;;18.19;100.00;93030.22;5090230;28;20500;-60
2021/07/25 07:48:31;;;;;;;9.60;7.80;;;;;;;18.20;100.00;93031.78;5056882;28;20024;-60
2021/07/25 07:50:57;;;;;;;8.60;7.60;;;;;;;18.25;100.00;93031.50;5078472;28;20112;-58
2021/07/25 07:53:22;;;;;;;10.85;6.85;;;;;;;18.31;100.00;93015.69;5076832;28;20032;-53
2021/07/25 07:55:50;;;;;;;11.07;8.18;;;;;;;18.39;100.00;93010.03;5062436;28;20502;-62
2021/07/25 07:58:16;;;;;;;9.55;7.82;;;;;;;18.42;100.00;93011.22;5067649;28;20024;-64
2021/07/25 08:00:41;;;;;;;12.07;8.10;;;;;;;18.41;100.00;93012.38;5081909;28;20386;-60
2021/07/25 08:03:06;;;;;;;13.35;7.70;;;;;;;18.38;100.00;93016.59;5064668;28;20029;-60
2021/07/25 08:05:35;;;;;;;11.07;7.75;;;;;;;18.40;100.00;93014.31;5054974;28;20025;-60
2021/07/25 08:08:02;;;;;;;11.20;7.68;;;;;;;18.44;100.00;93009.72;5056010;28;20031;-60
2021/07/25 08:10:27;;;;;;;9.52;7.22;;;;;;;18.45;100.00;93005.88;5081612;28;20421;-61
2021/07/25 08:12:55;;;;;;;9.10;6.70;;;;;;;18.48;100.00;93007.06;5045802;28;20031;-59
2021/07/25 08:15:20;;;;;;;10.75;7.68;;;;;;;18.57;100.00;93013.03;5082876;28;20559;-59
2021/07/25 08:17:46;;;;;;;11.15;7.55;;;;;;;18.70;100.00;93010.91;5081656;28;20025;-59
2021/07/25 08:20:12;;;;;;;8.93;6.97;;;;;;;18.71;100.00;92999.69;5082080;28;20028;-58
2021/07/25 08:22:37;;;;;;;10.07;7.25;;;;;;;18.81;100.00;92998.28;5045471;28;20078;-68
2021/07/25 08:25:04;;;;;;;8.85;7.28;;;;;;;18.83;100.00;92993.25;5067187;28;20016;-57
2021/07/25 08:27:30;;;;;;;9.02;7.18;;;;;;;18.89;100.00;93001.88;5036174;28;20036;-63
2021/07/25 08:29:56;;;;;;;8.43;6.65;;;;;;;18.97;100.00;93001.59;5063898;28;20040;-61
2021/07/25 08:32:21;;;;;;;9.20;7.95;;;;;;;19.11;100.00;93001.78;5068809;28;20025;-54
2021/07/25 08:34:46;;;;;;;10.75;7.25;;;;;;;19.21;100.00;93013.94;5076793;28;20016;-59
2021/07/25 08:37:12;;;;;;;12.05;7.60;;;;;;;19.51;100.00;93022.00;5076639;28;20208;-61
2021/07/25 08:39:40;;;;;;;9.40;7.13;;;;;;;19.79;100.00;93031.66;5076193;28;20028;-67
2021/07/25 08:42:11;;;;;;;10.55;7.63;;;;;;;19.98;100.00;93045.84;5056928;28;20394;-57
2021/07/25 08:44:49;;;;;;;13.07;8.32;;;;;;;20.03;100.00;93107.22;5064715;28;20390;-58
2021/07/25 08:47:21;;;;;;;10.93;8.30;;;;;;;20.07;100.00;93164.31;5055731;28;20024;-60
2021/07/25 08:49:59;;;;;;;10.90;8.93;;;;;;;20.05;100.00;93201.97;5067074;28;20024;-57
2021/07/25 08:52:32;;;;;;;11.15;7.93;;;;;;;20.06;100.00;93249.72;5082462;28;20020;-58
2021/07/25 08:55:02;;;;;;;11.45;8.65;;;;;;;20.08;100.00;93285.47;5061526;28;20113;-65
2021/07/25 08:57:31;;;;;;;12.15;8.77;;;;;;;20.09;100.00;93314.25;5038195;28;20153;-59
2021/07/25 08:59:57;;;;;;;10.00;8.02;;;;;;;20.02;100.00;93344.81;5073038;28;20032;-55
2021/07/25 09:02:31;;;;;;;13.10;8.95;;;;;;;19.95;100.00;93374.59;5060328;28;20028;-58
2021/07/25 09:04:59;;;;;;;10.98;8.40;;;;;;;19.82;100.00;93394.94;5051778;28;20029;-60
2021/07/25 09:07:29;;;;;;;11.35;7.53;;;;;;;19.78;100.00;93402.28;5045759;28;20033;-55
2021/07/25 09:10:15;;;;;;;11.00;8.07;;;;;;;19.81;100.00;93382.53;5073535;28;20016;-56
2021/07/25 09:12:44;;;;;;;9.43;7.30;;;;;;;19.77;100.00;93392.56;5047898;28;20033;-56
2021/07/25 09:15:15;;;;;;;10.93;7.45;;;;;;;19.69;100.00;93408.72;5036212;28;20555;-53
2021/07/25 09:17:41;;;;;;;10.07;7.80;;;;;;;19.66;100.00;93428.47;5081066;28;20034;-56
2021/07/25 09:20:20;;;;;;;10.75;7.88;;;;;;;19.61;100.00;93438.84;5069444;28;20140;-57
2021/07/25 09:22:48;;;;;;;11.18;8.18;;;;;;;19.57;100.00;93446.94;5064292;28;20020;-64
2021/07/25 09:25:38;;;;;;;10.38;8.00;;;;;;;19.48;100.00;93459.91;5059295;28;20522;-61
2021/07/25 09:28:16;;;;;;;9.10;6.90;;;;;;;19.49;100.00;93466.91;5064989;28;20052;-54
2021/07/25 09:30:44;;;;;;;9.98;8.20;;;;;;;19.50;100.00;93467.72;5046636;28;20029;-55
2021/07/25 09:33:47;;;;;;;10.32;7.50;;;;;;;19.46;100.00;93472.28;5052300;28;20016;-56
2021/07/25 09:36:18;;;;;;;8.45;7.07;;;;;;;19.48;100.00;93486.28;5040776;28;20036;-56
2021/07/25 09:38:53;;;;;;;10.30;7.40;;;;;;;19.43;100.00;93484.66;5067777;28;20052;-57
2021/07/25 09:41:24;;;;;;;11.75;7.95;;;;;;;19.36;100.00;93489.94;5068132;28;20029;-58
2021/07/25 09:44:05;;;;;;;11.52;7.65;;;;;;;19.26;100.00;93499.47;5056627;28;20032;-54
2021/07/25 09:46:42;;;;;;;13.30;8.10;;;;;;;19.20;100.00;93497.38;5071613;28;20099;-57
2021/07/25 09:49:07;;;;;;;9.57;7.40;;;;;;;19.15;100.00;93495.75;5054539;28;20820;-60
2021/07/25 09:51:33;;;;;;;12.15;7.68;;;;;;;19.10;100.00;93506.88;5075787;28;20155;-59
2021/07/25 09:54:02;;;;;;;11.82;7.22;;;;;;;19.16;100.00;93504.66;5053941;28;20032;-56
2021/07/25 09:56:28;;;;;;;8.95;6.72;;;;;;;19.06;100.00;93514.94;5063406;28;20044;-58
2021/07/25 09:58:57;;;;;;;8.98;7.03;;;;;;;19.07;100.00;93513.78;5069686;28;20151;-54
2021/07/25 10:01:42;;;;;;;9.15;7.15;;;;;;;19.08;100.00;93520.78;5076632;28;20119;-57
2021/07/25 10:04:12;;;;;;;8.90;6.72;;;;;;;19.10;100.00;93521.25;5081866;28;20031;-59
2021/07/25 10:06:43;;;;;;;9.38;7.18;;;;;;;19.11;100.00;93514.69;5042779;28;20037;-53
2021/07/25 10:09:19;;;;;;;12.57;7.35;;;;;;;19.08;100.00;93526.22;5074367;28;20024;-57
2021/07/25 10:11:46;;;;;;;9.20;7.28;;;;;;;18.99;100.00;93535.72;5069122;28;20025;-54
2021/07/25 10:14:18;;;;;;;10.88;7.53;;;;;;;18.99;100.00;93525.63;5077657;28;20491;-54
2021/07/25 10:16:45;;;;;;;8.73;7.40;;;;;;;18.93;100.00;93523.56;5052021;28;20032;-59
2021/07/25 10:19:11;;;;;;;11.52;7.18;;;;;;;18.88;100.00;93542.81;5044509;28;20177;-57
2021/07/25 10:21:41;;;;;;;9.18;7.50;;;;;;;18.86;100.00;93537.75;5069584;28;20110;-59
2021/07/25 10:24:12;;;;;;;9.98;7.60;;;;;;;18.88;100.00;93524.63;5073723;28;20033;-60
2021/07/25 10:26:39;;;;;;;9.88;6.97;;;;;;;18.83;100.00;93533.84;5066064;28;20434;-60
2021/07/25 10:29:11;;;;;;;11.38;7.25;;;;;;;18.79;100.00;93538.41;5067488;28;20031;-57
2021/07/25 10:31:38;;;;;;;9.07;6.85;;;;;;;18.74;100.00;93529.75;5049956;28;20025;-56
2021/07/25 10:34:05;;;;;;;9.80;7.30;;;;;;;18.66;100.00;93528.78;5070918;28;20067;-59
2021/07/25 10:36:32;;;;;;;9.68;6.85;;;;;;;18.44;100.00;93524.00;5080601;28;20119;-55
2021/07/25 10:39:01;;;;;;;9.27;6.47;;;;;;;18.29;100.00;93532.94;5074617;28;20032;-58
2021/07/25 10:41:30;;;;;;;8.63;6.68;;;;;;;18.19;100.00;93534.25;5053811;28;20447;-57
2021/07/25 10:44:00;;;;;;;9.48;6.63;;;;;;;18.11;100.00;93546.03;5048362;28;20020;-59
2021/07/25 10:46:33;;;;;;;7.93;6.40;;;;;;;18.09;100.00;93564.56;5062341;28;20111;-58
2021/07/25 10:49:09;;;;;;;8.45;6.53;;;;;;;18.08;100.00;93574.63;5034349;28;20087;-62
2021/07/25 10:51:59;;;;;;;8.60;6.13;;;;;;;18.01;100.00;93570.94;5052173;28;20021;-58
2021/07/25 10:54:24;;;;;;;7.45;5.80;;;;;;;17.88;100.00;93571.00;5006487;28;20041;-61
2021/07/25 10:57:11;;;;;;;8.02;6.00;;;;;;;17.72;100.00;93580.25;5057937;28;20075;-58
2021/07/25 10:59:40;;;;;;;8.05;5.05;;;;;;;17.62;100.00;93581.50;5073170;28;20498;-58
2021/07/25 11:02:13;;;;;;;7.95;5.57;;;;;;;17.23;100.00;93583.88;5060757;28;20040;-55
2021/07/25 11:05:09;;;;;;;4.57;3.63;;;;;;;16.87;100.00;93595.59;5042401;28;20574;-53
2021/07/25 11:07:35;;;;;;;4.95;3.80;;;;;;;16.63;100.00;93601.78;5053390;28;20078;-58
2021/07/25 11:10:05;;;;;;;6.80;3.75;;;;;;;16.47;100.00;93638.69;5062197;28;20016;-53
2021/07/25 11:12:55;;;;;;;6.13;3.67;;;;;;;16.46;100.00;93659.53;5083596;28;20115;-57
2021/07/25 11:15:33;;;;;;;3.95;2.88;;;;;;;16.33;100.00;93666.03;5052011;28;20407;-56
2021/07/25 11:18:11;;;;;;;4.75;3.45;;;;;;;16.21;100.00;93674.13;5053807;28;20032;-56
2021/07/25 11:20:39;;;;;;;6.55;3.17;;;;;;;15.99;100.00;93671.81;5058420;28;20372;-55
2021/07/25 11:23:12;;;;;;;4.30;2.70;;;;;;;15.80;100.00;93666.91;5071611;28;20029;-58
2021/07/25 11:25:44;;;;;;;4.38;2.42;;;;;;;15.57;100.00;93656.44;5074127;28;20086;-57
2021/07/25 11:28:09;;;;;;;5.53;2.85;;;;;;;15.47;100.00;93626.34;5077183;28;20146;-53
2021/07/25 11:30:54;;;;;;;6.50;2.83;;;;;;;15.31;100.00;93602.69;5077065;28;20104;-54
2021/07/25 11:33:38;;;;;;;5.78;3.33;;;;;;;15.19;100.00;93591.03;5074611;28;20023;-57